createdAt,value
2022-08-31T00:01:17.149Z,98827.69
2022-08-31T00:03:37.345Z,98831.94
2022-08-31T00:05:39.417Z,98830.13
2022-08-31T00:07:41.156Z,98836.03
2022-08-31T00:09:42.777Z,98840.22
2022-08-31T00:11:44.346Z,98845.31
2022-08-31T00:13:46.574Z,98834.81
2022-08-31T00:15:49.843Z,98831.56
2022-08-31T00:17:52.536Z,98842.97
2022-08-31T00:19:54.392Z,98836.09
2022-08-31T00:21:56.122Z,98842.28
2022-08-31T00:23:58.420Z,98844.91
2022-08-31T00:26:01.143Z,98840.81
2022-08-31T00:28:03.399Z,98829.22
2022-08-31T00:30:07.958Z,98837.84
2022-08-31T00:32:09.555Z,98836.53
2022-08-31T00:34:11.510Z,98838.81
2022-08-31T00:36:14.024Z,98828.34
2022-08-31T00:38:16.896Z,98836.53
2022-08-31T00:40:19.016Z,98838.78
2022-08-31T00:42:20.956Z,98831.91
2022-08-31T00:44:22.710Z,98835.84
2022-08-31T00:46:28.166Z,98834.03
2022-08-31T00:48:30.074Z,98837.09
2022-08-31T00:50:33.377Z,98833.00
2022-08-31T00:52:39.666Z,98833.66
2022-08-31T00:54:55.647Z,98836.75
2022-08-31T00:56:57.840Z,98832.16
2022-08-31T00:59:00.357Z,98829.19
2022-08-31T01:01:03.617Z,98841.75
2022-08-31T01:03:08.041Z,98837.66
2022-08-31T01:05:10.940Z,98830.28
2022-08-31T01:07:12.752Z,98833.38
2022-08-31T01:09:16.282Z,98821.78
2022-08-31T01:11:22.751Z,98829.91
2022-08-31T01:13:24.566Z,98824.16
2022-08-31T01:15:29.826Z,98822.84
2022-08-31T01:17:33.968Z,98828.72
2022-08-31T01:19:45.256Z,98817.75
2022-08-31T01:22:11.208Z,98818.66
2022-08-31T01:24:14.467Z,98820.78
2022-08-31T01:26:21.432Z,98823.84
2022-08-31T01:28:23.854Z,98823.69
2022-08-31T01:30:26.831Z,98817.94
2022-08-31T01:32:28.717Z,98828.53
2022-08-31T01:34:30.252Z,98826.06
2022-08-31T01:36:34.453Z,98827.84
2022-08-31T01:38:36.932Z,98824.56
2022-08-31T01:40:49.440Z,98830.75
2022-08-31T01:42:51.048Z,98832.19
2022-08-31T01:44:52.610Z,98828.91
2022-08-31T01:46:56.073Z,98828.41
2022-08-31T01:48:57.653Z,98825.94
2022-08-31T01:50:59.288Z,98824.63
2022-08-31T01:53:03.265Z,98831.31
2022-08-31T01:55:07.478Z,98826.38
2022-08-31T01:57:10.524Z,98826.69
2022-08-31T01:59:31.394Z,98827.34
2022-08-31T02:01:43.276Z,98834.00
2022-08-31T02:03:44.938Z,98828.25
2022-08-31T02:05:46.743Z,98832.69
2022-08-31T02:07:48.706Z,98835.78
2022-08-31T02:09:50.309Z,98836.06
2022-08-31T02:11:52.980Z,98824.47
2022-08-31T02:13:54.681Z,98827.56
2022-08-31T02:15:56.375Z,98834.56
2022-08-31T02:17:58.489Z,98826.53
2022-08-31T02:20:00.134Z,98827.38
2022-08-31T02:22:02.891Z,98822.91
2022-08-31T02:24:05.751Z,98827.66
2022-08-31T02:26:08.476Z,98815.75
2022-08-31T02:28:13.701Z,98819.97
2022-08-31T02:30:19.324Z,98812.78
2022-08-31T02:32:24.050Z,98813.59
2022-08-31T02:34:26.000Z,98815.03
2022-08-31T02:36:28.285Z,98820.59
2022-08-31T02:38:32.107Z,98814.53
2022-08-31T02:40:35.523Z,98816.47
2022-08-31T02:42:53.315Z,98811.78
2022-08-31T02:44:59.291Z,98822.03
2022-08-31T02:47:00.986Z,98816.81
2022-08-31T02:49:14.286Z,98824.31
2022-08-31T02:51:17.223Z,98824.81
2022-08-31T02:53:23.043Z,98823.16
2022-08-31T02:55:26.976Z,98823.16
2022-08-31T02:57:28.609Z,98817.59
2022-08-31T02:59:30.781Z,98816.81
2022-08-31T03:01:33.575Z,98818.44
2022-08-31T03:03:36.386Z,98820.38
2022-08-31T03:05:38.276Z,98813.22
2022-08-31T03:07:40.324Z,98819.59
2022-08-31T03:09:41.957Z,98809.63
2022-08-31T03:11:45.644Z,98818.75
2022-08-31T03:13:47.173Z,98812.38
2022-08-31T03:15:49.341Z,98817.09
2022-08-31T03:17:52.055Z,98816.28
2022-08-31T03:20:01.020Z,98815.47
2022-08-31T03:22:02.765Z,98820.50
2022-08-31T03:24:04.824Z,98812.19
2022-08-31T03:26:06.564Z,98818.88
2022-08-31T03:28:10.996Z,98817.53
2022-08-31T03:30:18.138Z,98814.78
2022-08-31T03:32:27.780Z,98824.53
2022-08-31T03:34:30.189Z,98820.59
2022-08-31T03:36:32.275Z,98822.06
2022-08-31T03:38:34.322Z,98814.88
2022-08-31T03:40:36.424Z,98810.97
2022-08-31T03:42:38.427Z,98809.34
2022-08-31T03:44:41.892Z,98819.94
2022-08-31T03:46:52.676Z,98821.88
2022-08-31T03:48:54.717Z,98826.25
2022-08-31T03:50:57.082Z,98832.13
2022-08-31T03:53:04.884Z,98821.03
2022-08-31T03:55:07.285Z,98831.31
2022-08-31T03:57:09.258Z,98824.94
2022-08-31T03:59:10.811Z,98834.06
2022-08-31T04:01:32.706Z,98829.97
2022-08-31T04:03:53.142Z,98833.91
2022-08-31T04:06:13.351Z,98835.84
2022-08-31T04:08:53.294Z,98836.97
2022-08-31T04:11:44.779Z,98834.50
2022-08-31T04:14:06.284Z,98836.44
2022-08-31T04:16:14.078Z,98827.81
2022-08-31T04:18:44.596Z,98831.25
2022-08-31T04:20:46.287Z,98834.00
2022-08-31T04:22:47.963Z,98836.44
2022-08-31T04:24:57.396Z,98835.63
2022-08-31T04:26:58.961Z,98840.88
2022-08-31T04:29:01.070Z,98844.44
2022-08-31T04:31:09.097Z,98833.38
2022-08-31T04:33:10.916Z,98830.59
2022-08-31T04:35:13.938Z,98836.13
2022-08-31T04:37:15.578Z,98835.34
2022-08-31T04:39:18.214Z,98828.66
2022-08-31T04:41:23.516Z,98829.78
2022-08-31T04:43:26.584Z,98828.97
2022-08-31T04:45:29.429Z,98831.75
2022-08-31T04:47:31.035Z,98830.09
2022-08-31T04:49:32.736Z,98827.31
2022-08-31T04:51:36.368Z,98836.78
2022-08-31T04:53:38.837Z,98841.50
2022-08-31T04:55:42.318Z,98845.88
2022-08-31T04:57:46.208Z,98835.63
2022-08-31T04:59:48.485Z,98838.72
2022-08-31T05:02:10.096Z,98839.00
2022-08-31T05:04:24.021Z,98843.44
2022-08-31T05:06:31.161Z,98847.03
2022-08-31T05:08:32.842Z,98852.56
2022-08-31T05:10:35.081Z,98853.41
2022-08-31T05:12:37.169Z,98856.16
2022-08-31T05:14:39.488Z,98852.25
2022-08-31T05:16:52.738Z,98852.25
2022-08-31T05:18:56.531Z,98860.56
2022-08-31T05:20:58.768Z,98863.34
2022-08-31T05:23:01.306Z,98863.34
2022-08-31T05:25:06.973Z,98861.06
2022-08-31T05:27:09.658Z,98865.50
2022-08-31T05:29:14.292Z,98869.91
2022-08-31T05:31:17.105Z,98864.38
2022-08-31T05:33:19.988Z,98864.38
2022-08-31T05:35:21.788Z,98877.06
2022-08-31T05:37:24.380Z,98864.88
2022-08-31T05:39:26.517Z,98868.16
2022-08-31T05:41:30.264Z,98873.91
2022-08-31T05:43:33.114Z,98870.00
2022-08-31T05:45:42.704Z,98873.25
2022-08-31T05:47:44.783Z,98869.88
2022-08-31T05:49:46.901Z,98872.34
2022-08-31T05:51:53.701Z,98864.53
2022-08-31T05:53:58.973Z,98869.75
2022-08-31T05:56:12.324Z,98871.91
2022-08-31T05:58:14.466Z,98872.13
2022-08-31T06:00:16.676Z,98875.41
2022-08-31T06:02:24.023Z,98870.91
2022-08-31T06:04:29.044Z,98873.88
2022-08-31T06:06:31.064Z,98879.59
2022-08-31T06:08:34.032Z,98875.72
2022-08-31T06:10:36.056Z,98873.44
2022-08-31T06:12:39.046Z,98876.41
2022-08-31T06:14:44.763Z,98872.69
2022-08-31T06:16:50.008Z,98876.81
2022-08-31T06:18:55.559Z,98876.19
2022-08-31T06:21:09.279Z,98879.47
2022-08-31T06:23:11.208Z,98878.00
2022-08-31T06:25:20.825Z,98876.25
2022-08-31T06:27:25.032Z,98879.53
2022-08-31T06:29:31.461Z,98882.50
2022-08-31T06:31:42.637Z,98881.03
2022-08-31T06:33:44.587Z,98879.91
2022-08-31T06:35:51.702Z,98885.97
2022-08-31T06:38:15.886Z,98888.13
2022-08-31T06:40:43.907Z,98882.44
2022-08-31T06:43:04.738Z,98893.22
2022-08-31T06:45:26.776Z,98887.53
2022-08-31T06:48:00.771Z,98888.56
2022-08-31T06:50:03.539Z,98891.84
2022-08-31T06:52:05.363Z,98895.13
2022-08-31T06:54:30.571Z,98895.81
2022-08-31T06:56:51.294Z,98899.91
2022-08-31T06:58:54.358Z,98901.75
2022-08-31T07:01:18.736Z,98901.97
2022-08-31T07:03:48.858Z,98903.28
2022-08-31T07:05:52.458Z,98904.00
2022-08-31T07:07:54.740Z,98904.97
2022-08-31T07:09:56.970Z,98902.41
2022-08-31T07:11:59.208Z,98903.72
2022-08-31T07:14:01.840Z,98908.31
2022-08-31T07:16:08.623Z,98898.19
2022-08-31T07:18:10.712Z,98897.56
2022-08-31T07:20:13.102Z,98898.56
2022-08-31T07:22:15.598Z,98898.75
2022-08-31T07:24:24.421Z,98903.34
2022-08-31T07:26:36.554Z,98904.03
2022-08-31T07:28:43.286Z,98897.50
2022-08-31T07:30:49.962Z,98904.09
2022-08-31T07:32:52.013Z,98910.97
2022-08-31T07:35:00.961Z,98911.13
2022-08-31T07:37:25.937Z,98905.75
2022-08-31T07:39:48.751Z,98907.06
2022-08-31T07:42:09.484Z,98913.63
2022-08-31T07:44:12.494Z,98907.13
2022-08-31T07:46:15.481Z,98920.06
2022-08-31T07:48:17.232Z,98916.31
2022-08-31T07:50:45.878Z,98920.91
2022-08-31T07:52:57.997Z,98919.78
2022-08-31T07:55:20.233Z,98920.28
2022-08-31T07:57:30.051Z,98914.56
2022-08-31T07:59:34.570Z,98921.94
2022-08-31T08:01:40.239Z,98912.13
2022-08-31T08:03:44.122Z,98916.72
2022-08-31T08:06:08.505Z,98924.09
2022-08-31T08:08:22.836Z,98921.00
2022-08-31T08:10:52.181Z,98921.16
2022-08-31T08:13:19.606Z,98927.72
2022-08-31T08:15:30.831Z,98923.78
2022-08-31T08:17:45.039Z,98921.19
2022-08-31T08:19:48.748Z,98924.94
2022-08-31T08:21:52.091Z,98921.50
2022-08-31T08:23:58.180Z,98927.25
2022-08-31T08:26:24.595Z,98926.28
2022-08-31T08:28:50.656Z,98932.03
2022-08-31T08:30:54.603Z,98928.28
2022-08-31T08:33:01.244Z,98932.88
2022-08-31T08:35:03.895Z,98935.50
2022-08-31T08:37:07.833Z,98926.16
2022-08-31T08:39:13.119Z,98939.13
2022-08-31T08:41:22.064Z,98938.97
2022-08-31T08:43:31.128Z,98932.72
2022-08-31T08:45:34.087Z,98934.53
2022-08-31T08:47:39.203Z,98926.97
2022-08-31T08:49:54.573Z,98937.13
2022-08-31T08:52:07.167Z,98928.31
2022-08-31T08:54:14.594Z,98938.09
2022-08-31T08:56:32.371Z,98945.97
2022-08-31T08:58:35.371Z,98944.84
2022-08-31T09:00:38.670Z,98942.84
2022-08-31T09:02:50.635Z,98941.66
2022-08-31T09:05:37.410Z,98942.97
2022-08-31T09:08:18.145Z,98935.53
2022-08-31T09:10:35.729Z,98926.81
2022-08-31T09:12:54.768Z,98930.06
2022-08-31T09:15:16.850Z,98937.41
2022-08-31T09:17:34.913Z,98926.34
2022-08-31T09:19:55.947Z,98930.41
2022-08-31T09:21:58.886Z,98924.06
2022-08-31T09:24:07.246Z,98930.56
2022-08-31T09:26:27.836Z,98929.50
2022-08-31T09:28:44.880Z,98930.88
2022-08-31T09:30:53.305Z,98925.03
2022-08-31T09:32:57.987Z,98932.78
2022-08-31T09:35:09.615Z,98923.59
2022-08-31T09:37:16.427Z,98935.34
2022-08-31T09:39:32.940Z,98921.03
2022-08-31T09:41:39.047Z,98924.34
2022-08-31T09:43:41.293Z,98917.59
2022-08-31T09:46:00.971Z,98919.25
2022-08-31T09:48:06.454Z,98916.97
2022-08-31T09:50:09.847Z,98918.59
2022-08-31T09:52:47.677Z,98913.47
2022-08-31T09:55:19.738Z,98917.53
2022-08-31T09:57:43.513Z,98916.50
2022-08-31T09:59:51.670Z,98908.50
2022-08-31T10:01:54.218Z,98912.53
2022-08-31T10:04:16.911Z,98905.84
2022-08-31T10:06:26.417Z,98907.53
2022-08-31T10:08:42.245Z,98906.38
2022-08-31T10:10:45.028Z,98911.22
2022-08-31T10:12:58.131Z,98903.91
2022-08-31T10:15:05.602Z,98899.03
2022-08-31T10:17:19.176Z,98898.50
2022-08-31T10:19:51.640Z,98885.91
2022-08-31T10:21:59.964Z,98895.78
2022-08-31T10:24:28.704Z,98894.41
2022-08-31T10:26:36.938Z,98894.69
2022-08-31T10:28:55.701Z,98901.28
2022-08-31T10:31:10.912Z,98891.06
2022-08-31T10:33:19.999Z,98900.06
2022-08-31T10:35:41.231Z,98894.25
2022-08-31T10:38:02.954Z,98897.22
2022-08-31T10:40:19.812Z,98890.94
2022-08-31T10:42:37.289Z,98891.16
2022-08-31T10:44:52.961Z,98894.63
2022-08-31T10:47:02.848Z,98893.56
2022-08-31T10:49:04.821Z,98886.91
2022-08-31T10:51:23.010Z,98896.69
2022-08-31T10:53:42.815Z,98889.50
2022-08-31T10:55:56.211Z,98891.09
2022-08-31T10:58:06.582Z,98888.69
2022-08-31T11:00:40.510Z,98888.97
2022-08-31T11:03:11.205Z,98894.16
2022-08-31T11:05:33.251Z,98891.72
2022-08-31T11:07:49.187Z,98888.84
2022-08-31T11:10:29.039Z,98889.97
2022-08-31T11:12:42.383Z,98891.03
2022-08-31T11:15:12.310Z,98893.78
2022-08-31T11:17:20.171Z,98892.59
2022-08-31T11:19:38.628Z,98896.94
2022-08-31T11:22:17.519Z,98894.50
2022-08-31T11:24:40.256Z,98892.50
2022-08-31T11:27:23.209Z,98892.88
2022-08-31T11:29:36.570Z,98890.44
2022-08-31T11:31:38.916Z,98884.91
2022-08-31T11:34:14.108Z,98888.88
2022-08-31T11:36:12.207Z,98888.00
2022-08-31T11:38:57.042Z,98883.03
2022-08-31T11:41:01.194Z,98884.50
2022-08-31T11:43:06.349Z,98881.97
2022-08-31T11:45:37.352Z,98885.44
2022-08-31T11:47:43.249Z,98882.56
2022-08-31T11:49:50.334Z,98882.41
2022-08-31T11:51:55.675Z,98890.66
2022-08-31T11:54:25.517Z,98888.53
2022-08-31T11:56:38.137Z,98883.16
2022-08-31T11:58:42.281Z,98881.06
2022-08-31T12:00:52.198Z,98878.91
2022-08-31T12:03:04.585Z,98880.81
2022-08-31T12:05:07.998Z,98875.94
2022-08-31T12:07:13.274Z,98879.84
2022-08-31T12:09:23.674Z,98884.56
2022-08-31T12:11:41.879Z,98882.47
2022-08-31T12:14:08.462Z,98878.41
2022-08-31T12:16:42.876Z,98878.41
2022-08-31T12:19:13.476Z,98880.66
2022-08-31T12:21:43.392Z,98877.75
2022-08-31T12:24:15.349Z,98883.75
2022-08-31T12:26:45.555Z,98875.59
2022-08-31T12:29:05.825Z,98878.31
2022-08-31T12:31:14.144Z,98885.56
2022-08-31T12:33:20.167Z,98882.31
2022-08-31T12:35:25.272Z,98885.38
2022-08-31T12:37:35.407Z,98892.13
2022-08-31T12:39:37.085Z,98891.81
2022-08-31T12:41:42.944Z,98892.97
2022-08-31T12:43:49.216Z,98888.50
2022-08-31T12:45:59.721Z,98893.69
2022-08-31T12:48:16.253Z,98888.44
2022-08-31T12:50:37.091Z,98894.03
2022-08-31T12:53:03.120Z,98886.78
2022-08-31T12:55:46.261Z,98891.13
2022-08-31T12:58:08.062Z,98896.41
2022-08-31T13:00:21.853Z,98893.94
2022-08-31T13:02:24.289Z,98894.75
2022-08-31T13:04:27.661Z,98894.75
2022-08-31T13:06:33.320Z,98887.16
2022-08-31T13:08:42.970Z,98890.78
2022-08-31T13:10:44.901Z,98881.91
2022-08-31T13:12:53.319Z,98881.44
2022-08-31T13:14:55.143Z,98884.25
2022-08-31T13:17:05.893Z,98878.19
2022-08-31T13:19:08.343Z,98874.13
2022-08-31T13:21:11.273Z,98880.13
2022-08-31T13:23:16.118Z,98881.66
2022-08-31T13:25:35.960Z,98878.38
2022-08-31T13:27:39.430Z,98876.75
2022-08-31T13:29:46.990Z,98869.59
2022-08-31T13:31:51.936Z,98875.22
2022-08-31T13:33:58.066Z,98871.22
2022-08-31T13:36:06.109Z,98881.66
2022-08-31T13:38:08.953Z,98878.47
2022-08-31T13:40:16.940Z,98875.78
2022-08-31T13:42:32.072Z,98876.56
2022-08-31T13:44:46.864Z,98879.84
2022-08-31T13:47:01.419Z,98874.22
2022-08-31T13:49:06.452Z,98877.94
2022-08-31T13:51:21.339Z,98881.19
2022-08-31T13:53:45.873Z,98863.63
2022-08-31T13:55:48.923Z,98867.38
2022-08-31T13:58:03.261Z,98860.59
2022-08-31T14:00:42.097Z,98867.84
2022-08-31T14:02:44.797Z,98862.28
2022-08-31T14:04:57.668Z,98877.16
2022-08-31T14:06:59.587Z,98868.00
2022-08-31T14:09:17.156Z,98870.44
2022-08-31T14:11:20.259Z,98872.91
2022-08-31T14:13:27.873Z,98869.72
2022-08-31T14:15:50.382Z,98872.91
2022-08-31T14:20:36.568Z,98862.41
2022-08-31T14:22:42.509Z,98865.56
2022-08-31T14:24:48.209Z,98862.75
2022-08-31T14:26:50.043Z,98873.53
2022-08-31T14:28:55.460Z,98863.50
2022-08-31T14:30:58.056Z,98862.69
2022-08-31T14:33:01.110Z,98866.63
2022-08-31T14:35:11.220Z,98856.13
2022-08-31T14:37:20.250Z,98857.34
2022-08-31T14:39:24.289Z,98861.41
2022-08-31T14:41:32.869Z,98857.34
2022-08-31T14:43:34.571Z,98844.91
2022-08-31T14:45:37.586Z,98846.94
2022-08-31T14:47:44.195Z,98846.94
2022-08-31T14:49:48.142Z,98840.94
2022-08-31T14:51:49.875Z,98847.72
2022-08-31T14:53:56.857Z,98838.97
2022-08-31T14:55:58.558Z,98844.19
2022-08-31T14:58:05.143Z,98840.66
2022-08-31T15:00:08.659Z,98838.31
2022-08-31T15:02:12.870Z,98823.47
2022-08-31T15:04:18.412Z,98827.09
2022-08-31T15:06:20.654Z,98824.66
2022-08-31T15:08:22.871Z,98830.25
2022-08-31T15:10:41.186Z,98832.69
2022-08-31T15:12:47.566Z,98831.88
2022-08-31T15:14:49.741Z,98830.25
2022-08-31T15:16:51.505Z,98841.50
2022-08-31T15:18:54.394Z,98836.22
2022-08-31T15:20:56.318Z,98838.59
2022-08-31T15:22:58.169Z,98840.50
2022-08-31T15:24:59.843Z,98844.00
2022-08-31T15:27:01.608Z,98842.72
2022-08-31T15:29:04.098Z,98839.81
2022-08-31T15:31:11.968Z,98850.16
2022-08-31T15:33:13.663Z,98855.31
2022-08-31T15:35:23.568Z,98846.72
2022-08-31T15:37:32.100Z,98845.09
2022-08-31T15:39:37.808Z,98864.53
2022-08-31T15:41:39.567Z,98855.19
2022-08-31T15:43:41.506Z,98857.09
2022-08-31T15:45:43.270Z,98851.38
2022-08-31T15:48:03.355Z,98861.25
2022-08-31T15:50:06.593Z,98859.06
2022-08-31T15:52:09.923Z,98864.09
2022-08-31T15:54:22.119Z,98852.31
2022-08-31T15:56:28.076Z,98863.31
2022-08-31T15:58:31.882Z,98852.03
2022-08-31T16:00:37.152Z,98856.69
2022-08-31T16:02:39.008Z,98858.97
2022-08-31T16:04:42.959Z,98854.06
2022-08-31T16:06:45.751Z,98855.94
2022-08-31T16:08:55.411Z,98857.00
2022-08-31T16:10:57.290Z,98850.50
2022-08-31T16:12:58.948Z,98857.19
2022-08-31T16:15:01.080Z,98852.63
2022-08-31T16:17:03.197Z,98852.88
2022-08-31T16:19:06.997Z,98854.31
2022-08-31T16:21:08.855Z,98853.31
2022-08-31T16:23:10.524Z,98856.38
2022-08-31T16:25:14.181Z,98855.09
2022-08-31T16:27:17.422Z,98853.72
2022-08-31T16:29:23.002Z,98860.03
2022-08-31T16:31:26.842Z,98864.22
2022-08-31T16:33:28.789Z,98863.31
2022-08-31T16:35:30.933Z,98857.59
2022-08-31T16:37:33.668Z,98862.59
2022-08-31T16:39:38.007Z,98872.44
2022-08-31T16:41:39.787Z,98867.88
2022-08-31T16:43:54.655Z,98870.56
2022-08-31T16:46:24.253Z,98868.00
2022-08-31T16:48:47.604Z,98862.16
2022-08-31T16:50:54.493Z,98868.44
2022-08-31T16:52:56.657Z,98879.16
2022-08-31T16:55:01.479Z,98880.69
2022-08-31T16:57:03.704Z,98876.13
2022-08-31T16:59:07.095Z,98877.66
2022-08-31T17:01:13.916Z,98879.50
2022-08-31T17:03:15.782Z,98881.38
2022-08-31T17:05:17.677Z,98881.69
2022-08-31T17:07:20.901Z,98876.81
2022-08-31T17:09:28.729Z,98896.25
2022-08-31T17:11:36.070Z,98887.41
2022-08-31T17:13:38.208Z,98892.88
2022-08-31T17:15:40.086Z,98894.03
2022-08-31T17:17:48.200Z,98898.81
2022-08-31T17:19:52.307Z,98902.16
2022-08-31T17:21:54.248Z,98900.53
2022-08-31T17:23:58.613Z,98901.22
2022-08-31T17:26:06.651Z,98898.66
2022-08-31T17:28:09.335Z,98900.16
2022-08-31T17:30:11.766Z,98910.88
2022-08-31T17:32:19.036Z,98907.94
2022-08-31T17:34:24.637Z,98907.31
2022-08-31T17:36:32.313Z,98912.78
2022-08-31T17:38:37.767Z,98916.13
2022-08-31T17:40:39.647Z,98924.03
2022-08-31T17:42:42.287Z,98926.81
2022-08-31T17:44:48.082Z,98921.13
2022-08-31T17:46:52.385Z,98921.44
2022-08-31T17:48:55.950Z,98929.72
2022-08-31T17:50:58.350Z,98929.56
2022-08-31T17:53:01.256Z,98918.59
2022-08-31T17:55:04.104Z,98920.94
2022-08-31T17:57:09.888Z,98923.59
2022-08-31T17:59:22.261Z,98928.22
2022-08-31T18:01:31.005Z,98926.94
2022-08-31T18:03:36.116Z,98930.06
2022-08-31T18:05:43.674Z,98934.69
2022-08-31T18:07:48.169Z,98931.44
2022-08-31T18:09:50.771Z,98931.28
2022-08-31T18:11:54.047Z,98943.13
2022-08-31T18:13:56.953Z,98942.50
2022-08-31T18:15:58.762Z,98939.19
2022-08-31T18:18:01.659Z,98949.91
2022-08-31T18:20:08.594Z,98946.63
2022-08-31T18:22:11.112Z,98961.63
2022-08-31T18:24:15.395Z,98955.06
2022-08-31T18:26:21.604Z,98955.25
2022-08-31T18:28:23.249Z,98953.47
2022-08-31T18:30:25.196Z,98955.31
2022-08-31T18:32:28.742Z,98963.19
2022-08-31T18:34:33.005Z,98961.88
2022-08-31T18:36:38.623Z,98967.00
2022-08-31T18:38:40.761Z,98966.03
2022-08-31T18:41:00.937Z,98980.31
2022-08-31T18:43:21.346Z,98968.19
2022-08-31T18:45:23.142Z,98971.19
2022-08-31T18:47:31.166Z,98972.31
2022-08-31T18:49:39.087Z,98974.97
2022-08-31T18:51:43.184Z,98975.63
2022-08-31T18:53:44.854Z,98973.19
2022-08-31T18:55:46.864Z,98970.25
2022-08-31T18:57:49.286Z,98976.16
2022-08-31T18:59:57.238Z,98968.47
2022-08-31T19:01:59.154Z,98976.84
2022-08-31T19:04:06.042Z,98982.22
2022-08-31T19:06:09.292Z,98984.53
2022-08-31T19:08:11.419Z,98989.94
2022-08-31T19:10:21.533Z,98993.91
2022-08-31T19:12:24.657Z,98987.31
2022-08-31T19:14:26.403Z,98986.53
2022-08-31T19:16:29.881Z,98981.28
2022-08-31T19:18:41.027Z,98984.72
2022-08-31T19:20:45.092Z,98981.78
2022-08-31T19:22:47.198Z,98973.28
2022-08-31T19:24:49.735Z,98978.38
2022-08-31T19:26:57.044Z,98978.69
2022-08-31T19:29:00.138Z,98978.53
2022-08-31T19:31:02.324Z,98980.84
2022-08-31T19:33:07.736Z,98982.00
2022-08-31T19:35:09.677Z,98984.59
2022-08-31T19:37:13.623Z,98983.81
2022-08-31T19:39:22.200Z,98980.19
2022-08-31T19:41:26.490Z,98980.03
2022-08-31T19:43:52.385Z,98986.78
2022-08-31T19:45:51.885Z,98982.16
2022-08-31T19:47:54.000Z,98983.34
2022-08-31T19:49:56.177Z,98980.84
2022-08-31T19:52:01.061Z,98981.53
2022-08-31T19:54:03.524Z,98981.53
2022-08-31T19:56:06.203Z,98973.00
2022-08-31T19:58:07.889Z,98978.94
2022-08-31T20:00:10.682Z,98981.19
2022-08-31T20:02:14.137Z,98976.31
2022-08-31T20:04:17.853Z,98975.00
2022-08-31T20:06:20.718Z,98980.88
2022-08-31T20:08:22.480Z,98984.00
2022-08-31T20:10:28.877Z,98983.50
2022-08-31T20:12:32.119Z,98981.03
2022-08-31T20:14:35.299Z,98981.38
2022-08-31T20:16:42.731Z,98982.50
2022-08-31T20:18:46.430Z,98981.19
2022-08-31T20:20:51.002Z,98984.31
2022-08-31T20:22:54.125Z,98971.88
2022-08-31T20:24:55.899Z,98977.75
2022-08-31T20:27:01.305Z,98979.22
2022-08-31T20:29:06.889Z,98967.13
2022-08-31T20:31:13.047Z,98979.06
2022-08-31T20:33:14.844Z,98977.78
2022-08-31T20:35:16.801Z,98985.63
2022-08-31T20:37:18.936Z,98973.97
2022-08-31T20:39:24.370Z,98981.84
2022-08-31T20:41:31.427Z,98982.50
2022-08-31T20:43:35.503Z,98978.41
2022-08-31T20:45:38.089Z,98982.34
2022-08-31T20:47:58.662Z,98983.00
2022-08-31T20:50:02.455Z,98985.28
2022-08-31T20:52:04.242Z,98989.22
2022-08-31T20:54:06.084Z,98985.13
2022-08-31T20:56:08.118Z,98988.25
2022-08-31T20:58:09.680Z,98984.97
2022-08-31T21:00:11.943Z,98986.94
2022-08-31T21:02:13.636Z,98994.78
2022-08-31T21:04:15.258Z,98995.44
2022-08-31T21:06:16.936Z,98993.28
2022-08-31T21:08:18.527Z,98995.25
2022-08-31T21:10:32.581Z,98988.38
2022-08-31T21:12:40.221Z,98992.63
2022-08-31T21:14:45.692Z,98992.13
2022-08-31T21:16:47.882Z,98990.00
2022-08-31T21:18:50.031Z,98994.44
2022-08-31T21:20:52.107Z,98993.13
2022-08-31T21:22:53.621Z,98988.19
2022-08-31T21:24:59.738Z,98986.50
2022-08-31T21:27:02.160Z,98992.75
2022-08-31T21:29:05.311Z,98990.28
2022-08-31T21:31:18.494Z,98993.69
2022-08-31T21:33:30.871Z,98988.81
2022-08-31T21:35:32.470Z,98989.44
2022-08-31T21:37:34.062Z,98995.31
2022-08-31T21:39:38.173Z,98994.00
2022-08-31T21:41:39.921Z,98994.63
2022-08-31T21:43:41.545Z,98997.75
2022-08-31T21:45:46.110Z,98988.09
2022-08-31T21:47:47.753Z,98997.06
2022-08-31T21:49:53.254Z,98997.41
2022-08-31T21:51:56.350Z,98993.59
2022-08-31T21:54:00.735Z,98987.25
2022-08-31T21:56:05.009Z,98991.50
2022-08-31T21:58:06.771Z,98987.41
2022-08-31T22:00:13.693Z,98983.31
2022-08-31T22:02:18.061Z,98982.78
2022-08-31T22:04:20.969Z,98989.00
2022-08-31T22:06:26.747Z,98989.31
2022-08-31T22:08:32.663Z,98992.41
2022-08-31T22:10:39.280Z,98990.28
2022-08-31T22:12:41.117Z,98990.91
2022-08-31T22:14:44.605Z,98988.75
2022-08-31T22:16:48.138Z,98985.50
2022-08-31T22:19:01.370Z,98983.88
2022-08-31T22:21:05.325Z,98981.72
2022-08-31T22:23:10.087Z,98986.78
2022-08-31T22:25:11.948Z,98984.16
2022-08-31T22:27:13.671Z,98979.19
2022-08-31T22:29:23.723Z,98985.38
2022-08-31T22:31:27.442Z,98984.88
2022-08-31T22:33:29.644Z,98986.34
2022-08-31T22:35:31.301Z,98995.31
2022-08-31T22:37:35.333Z,98984.00
2022-08-31T22:39:40.366Z,98982.69
2022-08-31T22:41:42.984Z,98987.75
2022-08-31T22:43:45.734Z,98982.81
2022-08-31T22:45:48.947Z,98990.66
2022-08-31T22:47:53.916Z,98988.50
2022-08-31T22:49:55.638Z,98983.59
2022-08-31T22:51:57.849Z,98993.41
2022-08-31T22:53:59.782Z,98991.75
2022-08-31T22:56:02.944Z,98985.69
2022-08-31T22:58:04.843Z,98988.47
2022-08-31T23:00:14.379Z,98982.72
2022-08-31T23:02:17.990Z,98987.78
2022-08-31T23:04:20.380Z,98979.75
2022-08-31T23:06:24.908Z,98981.22
2022-08-31T23:08:26.550Z,98982.66
2022-08-31T23:10:30.449Z,98985.75
2022-08-31T23:12:32.308Z,98981.66
2022-08-31T23:14:38.192Z,98981.97
2022-08-31T23:16:46.378Z,98987.31
2022-08-31T23:18:48.776Z,98973.78
2022-08-31T23:20:51.024Z,98984.06
2022-08-31T23:22:55.051Z,98981.91
2022-08-31T23:25:00.881Z,98971.94
2022-08-31T23:27:05.016Z,98972.56
2022-08-31T23:29:09.336Z,98968.47
2022-08-31T23:31:10.997Z,98967.66
2022-08-31T23:33:12.598Z,98969.91
2022-08-31T23:35:15.666Z,98973.00
2022-08-31T23:37:18.445Z,98973.31
2022-08-31T23:39:23.707Z,98973.63
2022-08-31T23:41:30.098Z,98970.31
2022-08-31T23:43:31.643Z,98967.84
2022-08-31T23:45:33.425Z,98963.44
2022-08-31T23:47:35.307Z,98956.25
2022-08-31T23:49:39.265Z,98963.75
2022-08-31T23:51:41.036Z,98957.69
2022-08-31T23:53:48.473Z,98957.16
2022-08-31T23:55:50.092Z,98953.59
2022-08-31T23:57:51.678Z,98945.91
